sensor_id;sensor_type;location;lat;lon;timestamp;temperature;humidity
6988;DHT22;3534;49.960;8.018;2023-12-28T00:00:02;6.70;99.90
6988;DHT22;3534;49.960;8.018;2023-12-28T00:02:30;6.70;99.90
6988;DHT22;3534;49.960;8.018;2023-12-28T00:04:57;6.70;99.90
6988;DHT22;3534;49.960;8.018;2023-12-28T00:07:24;6.70;99.90
6988;DHT22;3534;49.960;8.018;2023-12-28T00:09:50;6.70;99.90
6988;DHT22;3534;49.960;8.018;2023-12-28T00:12:17;6.70;99.90
6988;DHT22;3534;49.960;8.018;2023-12-28T00:14:44;6.80;99.90
6988;DHT22;3534;49.960;8.018;2023-12-28T00:17:10;6.80;99.90
6988;DHT22;3534;49.960;8.018;2023-12-28T00:19:38;6.80;99.90
6988;DHT22;3534;49.960;8.018;2023-12-28T00:22:05;6.80;99.90
6988;DHT22;3534;49.960;8.018;2023-12-28T00:24:31;6.80;99.90
6988;DHT22;3534;49.960;8.018;2023-12-28T00:26:58;6.80;99.90
6988;DHT22;3534;49.960;8.018;2023-12-28T00:29:25;6.70;99.90
6988;DHT22;3534;49.960;8.018;2023-12-28T00:31:51;6.70;99.90
6988;DHT22;3534;49.960;8.018;2023-12-28T00:34:18;6.70;99.90
6988;DHT22;3534;49.960;8.018;2023-12-28T00:36:46;6.80;99.90
6988;DHT22;3534;49.960;8.018;2023-12-28T00:39:13;6.80;99.90
6988;DHT22;3534;49.960;8.018;2023-12-28T00:41:40;6.80;99.90
6988;DHT22;3534;49.960;8.018;2023-12-28T00:44:07;6.80;99.90
6988;DHT22;3534;49.960;8.018;2023-12-28T00:46:35;6.90;99.90
6988;DHT22;3534;49.960;8.018;2023-12-28T00:49:01;6.90;99.90
6988;DHT22;3534;49.960;8.018;2023-12-28T00:51:28;6.90;99.90
6988;DHT22;3534;49.960;8.018;2023-12-28T00:53:56;6.90;99.90
6988;DHT22;3534;49.960;8.018;2023-12-28T00:56:23;6.90;99.90
6988;DHT22;3534;49.960;8.018;2023-12-28T00:58:49;6.90;99.90
6988;DHT22;3534;49.960;8.018;2023-12-28T01:01:16;6.90;99.90
6988;DHT22;3534;49.960;8.018;2023-12-28T01:03:43;6.90;99.90
6988;DHT22;3534;49.960;8.018;2023-12-28T01:06:09;6.90;99.90
6988;DHT22;3534;49.960;8.018;2023-12-28T01:08:36;6.90;99.90
6988;DHT22;3534;49.960;8.018;2023-12-28T01:11:04;7.00;99.90
6988;DHT22;3534;49.960;8.018;2023-12-28T01:13:31;7.00;99.90
6988;DHT22;3534;49.960;8.018;2023-12-28T01:15:57;7.00;99.90
6988;DHT22;3534;49.960;8.018;2023-12-28T01:18:23;7.10;99.90
6988;DHT22;3534;49.960;8.018;2023-12-28T01:20:50;7.10;99.90
6988;DHT22;3534;49.960;8.018;2023-12-28T01:23:16;7.10;99.90
6988;DHT22;3534;49.960;8.018;2023-12-28T01:25:43;7.20;99.90
6988;DHT22;3534;49.960;8.018;2023-12-28T01:28:11;7.20;99.90
6988;DHT22;3534;49.960;8.018;2023-12-28T01:30:38;7.20;99.90
6988;DHT22;3534;49.960;8.018;2023-12-28T01:33:04;7.30;99.90
6988;DHT22;3534;49.960;8.018;2023-12-28T01:35:31;7.30;99.90
6988;DHT22;3534;49.960;8.018;2023-12-28T01:37:58;7.30;99.90
6988;DHT22;3534;49.960;8.018;2023-12-28T01:40:26;7.40;99.90
6988;DHT22;3534;49.960;8.018;2023-12-28T01:42:52;7.40;99.90
6988;DHT22;3534;49.960;8.018;2023-12-28T01:45:20;7.40;99.90
6988;DHT22;3534;49.960;8.018;2023-12-28T01:47:48;7.50;99.90
6988;DHT22;3534;49.960;8.018;2023-12-28T01:50:14;7.50;99.90
6988;DHT22;3534;49.960;8.018;2023-12-28T01:52:41;7.50;99.90
6988;DHT22;3534;49.960;8.018;2023-12-28T01:55:08;7.60;99.90
6988;DHT22;3534;49.960;8.018;2023-12-28T01:57:35;7.60;99.90
6988;DHT22;3534;49.960;8.018;2023-12-28T02:00:03;7.50;99.90
6988;DHT22;3534;49.960;8.018;2023-12-28T02:02:31;7.50;99.90
6988;DHT22;3534;49.960;8.018;2023-12-28T02:04:59;7.60;99.90
6988;DHT22;3534;49.960;8.018;2023-12-28T02:07:25;7.60;99.90
6988;DHT22;3534;49.960;8.018;2023-12-28T02:09:52;7.60;99.90
6988;DHT22;3534;49.960;8.018;2023-12-28T02:12:19;7.60;99.90
6988;DHT22;3534;49.960;8.018;2023-12-28T02:14:45;7.70;99.90
6988;DHT22;3534;49.960;8.018;2023-12-28T02:17:15;7.70;99.90
6988;DHT22;3534;49.960;8.018;2023-12-28T02:19:49;7.70;99.90
6988;DHT22;3534;49.960;8.018;2023-12-28T02:22:16;7.80;99.90
6988;DHT22;3534;49.960;8.018;2023-12-28T02:25:07;7.80;99.90
6988;DHT22;3534;49.960;8.018;2023-12-28T02:27:35;7.90;99.90
6988;DHT22;3534;49.960;8.018;2023-12-28T02:30:03;7.90;99.90
6988;DHT22;3534;49.960;8.018;2023-12-28T02:32:52;7.90;99.90
6988;DHT22;3534;49.960;8.018;2023-12-28T02:35:24;8.00;99.90
6988;DHT22;3534;49.960;8.018;2023-12-28T02:37:53;8.00;99.90
6988;DHT22;3534;49.960;8.018;2023-12-28T02:40:24;8.00;99.90
6988;DHT22;3534;49.960;8.018;2023-12-28T02:42:51;8.00;99.90
6988;DHT22;3534;49.960;8.018;2023-12-28T02:45:17;8.00;99.90
6988;DHT22;3534;49.960;8.018;2023-12-28T02:47:44;8.00;99.90
6988;DHT22;3534;49.960;8.018;2023-12-28T02:50:11;8.10;99.90
6988;DHT22;3534;49.960;8.018;2023-12-28T02:52:37;8.10;99.90
6988;DHT22;3534;49.960;8.018;2023-12-28T02:55:05;8.10;99.90
6988;DHT22;3534;49.960;8.018;2023-12-28T02:57:33;8.20;99.90
6988;DHT22;3534;49.960;8.018;2023-12-28T03:00:04;8.20;99.90
6988;DHT22;3534;49.960;8.018;2023-12-28T03:02:31;8.30;99.90
6988;DHT22;3534;49.960;8.018;2023-12-28T03:04:58;8.30;99.90
6988;DHT22;3534;49.960;8.018;2023-12-28T03:07:24;8.30;99.90
6988;DHT22;3534;49.960;8.018;2023-12-28T03:09:51;8.30;99.90
6988;DHT22;3534;49.960;8.018;2023-12-28T03:12:17;8.40;99.90
6988;DHT22;3534;49.960;8.018;2023-12-28T03:14:45;8.40;99.90
6988;DHT22;3534;49.960;8.018;2023-12-28T03:17:12;8.40;99.90
6988;DHT22;3534;49.960;8.018;2023-12-28T03:19:39;8.50;99.90
6988;DHT22;3534;49.960;8.018;2023-12-28T03:22:06;8.50;99.90
6988;DHT22;3534;49.960;8.018;2023-12-28T03:24:32;8.50;99.90
6988;DHT22;3534;49.960;8.018;2023-12-28T03:26:59;8.50;99.90
6988;DHT22;3534;49.960;8.018;2023-12-28T03:29:27;8.60;99.90
6988;DHT22;3534;49.960;8.018;2023-12-28T03:31:55;8.60;99.90
6988;DHT22;3534;49.960;8.018;2023-12-28T03:34:22;8.60;99.90
6988;DHT22;3534;49.960;8.018;2023-12-28T03:36:49;8.70;99.90
6988;DHT22;3534;49.960;8.018;2023-12-28T03:39:16;8.70;99.90
6988;DHT22;3534;49.960;8.018;2023-12-28T03:41:42;8.70;99.90
6988;DHT22;3534;49.960;8.018;2023-12-28T03:44:09;8.70;99.90
6988;DHT22;3534;49.960;8.018;2023-12-28T03:46:35;8.80;99.90
6988;DHT22;3534;49.960;8.018;2023-12-28T03:49:03;8.80;99.90
6988;DHT22;3534;49.960;8.018;2023-12-28T03:51:30;8.80;99.90
6988;DHT22;3534;49.960;8.018;2023-12-28T03:53:57;8.90;99.90
6988;DHT22;3534;49.960;8.018;2023-12-28T03:56:25;8.90;99.90
6988;DHT22;3534;49.960;8.018;2023-12-28T03:58:52;8.90;99.90
6988;DHT22;3534;49.960;8.018;2023-12-28T04:01:20;8.90;99.90
6988;DHT22;3534;49.960;8.018;2023-12-28T04:03:47;8.90;99.90
6988;DHT22;3534;49.960;8.018;2023-12-28T04:06:16;8.90;99.90
6988;DHT22;3534;49.960;8.018;2023-12-28T04:08:43;9.00;99.90
6988;DHT22;3534;49.960;8.018;2023-12-28T04:11:10;9.00;99.90
6988;DHT22;3534;49.960;8.018;2023-12-28T04:13:37;9.00;99.90
6988;DHT22;3534;49.960;8.018;2023-12-28T04:16:04;9.00;99.90
6988;DHT22;3534;49.960;8.018;2023-12-28T04:18:31;9.10;99.90
6988;DHT22;3534;49.960;8.018;2023-12-28T04:20:58;9.10;99.90
6988;DHT22;3534;49.960;8.018;2023-12-28T04:23:26;9.20;99.90
6988;DHT22;3534;49.960;8.018;2023-12-28T04:25:53;9.20;99.90
6988;DHT22;3534;49.960;8.018;2023-12-28T04:28:20;9.20;99.90
6988;DHT22;3534;49.960;8.018;2023-12-28T04:30:46;9.20;99.90
6988;DHT22;3534;49.960;8.018;2023-12-28T04:33:13;9.20;99.90
6988;DHT22;3534;49.960;8.018;2023-12-28T04:35:43;9.20;99.90
6988;DHT22;3534;49.960;8.018;2023-12-28T04:38:09;9.20;99.90
6988;DHT22;3534;49.960;8.018;2023-12-28T04:40:37;9.20;99.90
6988;DHT22;3534;49.960;8.018;2023-12-28T04:43:04;9.20;99.90
6988;DHT22;3534;49.960;8.018;2023-12-28T04:45:30;9.20;99.90
6988;DHT22;3534;49.960;8.018;2023-12-28T04:47:57;9.20;99.90
6988;DHT22;3534;49.960;8.018;2023-12-28T04:50:24;9.30;99.90
6988;DHT22;3534;49.960;8.018;2023-12-28T04:52:50;9.20;99.90
6988;DHT22;3534;49.960;8.018;2023-12-28T04:55:17;9.30;99.90
6988;DHT22;3534;49.960;8.018;2023-12-28T04:57:45;9.30;99.90
6988;DHT22;3534;49.960;8.018;2023-12-28T05:00:12;9.30;99.90
6988;DHT22;3534;49.960;8.018;2023-12-28T05:02:39;9.20;99.90
6988;DHT22;3534;49.960;8.018;2023-12-28T05:05:06;9.20;99.90
6988;DHT22;3534;49.960;8.018;2023-12-28T05:07:34;9.20;99.90
6988;DHT22;3534;49.960;8.018;2023-12-28T05:10:01;9.20;99.90
6988;DHT22;3534;49.960;8.018;2023-12-28T05:12:28;9.30;99.90
6988;DHT22;3534;49.960;8.018;2023-12-28T05:14:56;9.30;99.90
6988;DHT22;3534;49.960;8.018;2023-12-28T05:17:22;9.40;99.90
6988;DHT22;3534;49.960;8.018;2023-12-28T05:19:49;9.40;99.90
6988;DHT22;3534;49.960;8.018;2023-12-28T05:22:16;9.40;99.90
6988;DHT22;3534;49.960;8.018;2023-12-28T05:24:42;9.50;99.90
6988;DHT22;3534;49.960;8.018;2023-12-28T05:27:09;9.50;99.90
6988;DHT22;3534;49.960;8.018;2023-12-28T05:29:36;9.50;99.90
6988;DHT22;3534;49.960;8.018;2023-12-28T05:32:04;9.60;99.90
6988;DHT22;3534;49.960;8.018;2023-12-28T05:34:31;9.60;99.90
6988;DHT22;3534;49.960;8.018;2023-12-28T05:36:58;9.60;99.90
6988;DHT22;3534;49.960;8.018;2023-12-28T05:39:24;9.60;99.90
6988;DHT22;3534;49.960;8.018;2023-12-28T05:41:51;9.60;99.90
6988;DHT22;3534;49.960;8.018;2023-12-28T05:44:18;9.60;99.90
6988;DHT22;3534;49.960;8.018;2023-12-28T05:46:44;9.50;99.90
6988;DHT22;3534;49.960;8.018;2023-12-28T05:49:12;9.50;99.90
6988;DHT22;3534;49.960;8.018;2023-12-28T05:51:40;9.50;99.90
6988;DHT22;3534;49.960;8.018;2023-12-28T05:54:07;9.40;99.90
6988;DHT22;3534;49.960;8.018;2023-12-28T05:56:34;9.40;99.90
6988;DHT22;3534;49.960;8.018;2023-12-28T05:59:01;9.40;99.90
6988;DHT22;3534;49.960;8.018;2023-12-28T06:01:28;9.40;99.90
6988;DHT22;3534;49.960;8.018;2023-12-28T06:03:54;9.40;99.90
6988;DHT22;3534;49.960;8.018;2023-12-28T06:06:22;9.30;99.90
6988;DHT22;3534;49.960;8.018;2023-12-28T06:08:49;9.30;99.90
6988;DHT22;3534;49.960;8.018;2023-12-28T06:11:16;9.30;99.90
6988;DHT22;3534;49.960;8.018;2023-12-28T06:13:43;9.30;99.90
6988;DHT22;3534;49.960;8.018;2023-12-28T06:16:10;9.30;99.90
6988;DHT22;3534;49.960;8.018;2023-12-28T06:18:36;9.30;99.90
6988;DHT22;3534;49.960;8.018;2023-12-28T06:21:03;9.30;99.90
6988;DHT22;3534;49.960;8.018;2023-12-28T06:23:33;9.30;99.90
6988;DHT22;3534;49.960;8.018;2023-12-28T06:26:04;9.30;99.90
6988;DHT22;3534;49.960;8.018;2023-12-28T06:28:32;9.30;99.90
6988;DHT22;3534;49.960;8.018;2023-12-28T06:30:58;9.30;99.90
6988;DHT22;3534;49.960;8.018;2023-12-28T06:33:26;9.30;99.90
6988;DHT22;3534;49.960;8.018;2023-12-28T06:35:54;9.30;99.90
6988;DHT22;3534;49.960;8.018;2023-12-28T06:38:23;9.30;99.90
6988;DHT22;3534;49.960;8.018;2023-12-28T06:40:51;9.30;99.90
6988;DHT22;3534;49.960;8.018;2023-12-28T06:43:18;9.40;99.90
6988;DHT22;3534;49.960;8.018;2023-12-28T06:45:44;9.40;99.90
6988;DHT22;3534;49.960;8.018;2023-12-28T06:48:11;9.40;99.90
6988;DHT22;3534;49.960;8.018;2023-12-28T06:50:38;9.40;99.90
6988;DHT22;3534;49.960;8.018;2023-12-28T06:53:04;9.40;99.90
6988;DHT22;3534;49.960;8.018;2023-12-28T06:55:31;9.40;99.90
6988;DHT22;3534;49.960;8.018;2023-12-28T06:57:59;9.40;99.90
6988;DHT22;3534;49.960;8.018;2023-12-28T07:00:27;9.40;99.90
6988;DHT22;3534;49.960;8.018;2023-12-28T07:02:53;9.40;99.90
6988;DHT22;3534;49.960;8.018;2023-12-28T07:05:20;9.50;99.90
6988;DHT22;3534;49.960;8.018;2023-12-28T07:07:47;9.50;99.90
6988;DHT22;3534;49.960;8.018;2023-12-28T07:10:13;9.50;99.90
6988;DHT22;3534;49.960;8.018;2023-12-28T07:12:40;9.50;99.90
6988;DHT22;3534;49.960;8.018;2023-12-28T07:15:09;9.50;99.90
6988;DHT22;3534;49.960;8.018;2023-12-28T07:17:39;9.50;99.90
6988;DHT22;3534;49.960;8.018;2023-12-28T07:20:07;9.50;99.90
6988;DHT22;3534;49.960;8.018;2023-12-28T07:22:36;9.50;99.90
6988;DHT22;3534;49.960;8.018;2023-12-28T07:25:03;9.50;99.90
6988;DHT22;3534;49.960;8.018;2023-12-28T07:27:30;9.50;99.90
6988;DHT22;3534;49.960;8.018;2023-12-28T07:29:57;9.50;99.90
6988;DHT22;3534;49.960;8.018;2023-12-28T07:32:25;9.50;99.90
6988;DHT22;3534;49.960;8.018;2023-12-28T07:34:52;9.50;99.90
6988;DHT22;3534;49.960;8.018;2023-12-28T07:37:19;9.50;99.90
6988;DHT22;3534;49.960;8.018;2023-12-28T07:39:46;9.50;99.90
6988;DHT22;3534;49.960;8.018;2023-12-28T07:42:13;9.50;99.90
6988;DHT22;3534;49.960;8.018;2023-12-28T07:44:40;9.50;99.90
6988;DHT22;3534;49.960;8.018;2023-12-28T07:47:07;9.50;99.90
6988;DHT22;3534;49.960;8.018;2023-12-28T07:49:35;9.50;99.90
6988;DHT22;3534;49.960;8.018;2023-12-28T07:52:02;9.50;99.90
6988;DHT22;3534;49.960;8.018;2023-12-28T07:54:28;9.50;99.90
6988;DHT22;3534;49.960;8.018;2023-12-28T07:56:55;9.50;99.90
6988;DHT22;3534;49.960;8.018;2023-12-28T07:59:22;9.50;99.90
6988;DHT22;3534;49.960;8.018;2023-12-28T08:01:49;9.50;99.90
6988;DHT22;3534;49.960;8.018;2023-12-28T08:04:15;9.50;99.90
6988;DHT22;3534;49.960;8.018;2023-12-28T08:06:43;9.60;99.90
6988;DHT22;3534;49.960;8.018;2023-12-28T08:09:10;9.60;99.90
6988;DHT22;3534;49.960;8.018;2023-12-28T08:11:37;9.70;99.90
6988;DHT22;3534;49.960;8.018;2023-12-28T08:14:05;9.60;99.90
6988;DHT22;3534;49.960;8.018;2023-12-28T08:16:31;9.60;99.90
6988;DHT22;3534;49.960;8.018;2023-12-28T08:19:00;9.60;99.90
6988;DHT22;3534;49.960;8.018;2023-12-28T08:21:27;9.60;99.90
6988;DHT22;3534;49.960;8.018;2023-12-28T08:23:55;9.60;99.90
6988;DHT22;3534;49.960;8.018;2023-12-28T08:26:21;9.70;99.90
6988;DHT22;3534;49.960;8.018;2023-12-28T08:28:48;9.60;99.90
6988;DHT22;3534;49.960;8.018;2023-12-28T08:31:15;9.60;99.90
6988;DHT22;3534;49.960;8.018;2023-12-28T08:33:42;9.70;99.90
6988;DHT22;3534;49.960;8.018;2023-12-28T08:36:09;9.70;99.90
6988;DHT22;3534;49.960;8.018;2023-12-28T08:38:37;9.70;99.90
6988;DHT22;3534;49.960;8.018;2023-12-28T08:41:05;9.70;99.90
6988;DHT22;3534;49.960;8.018;2023-12-28T08:43:34;9.70;99.90
6988;DHT22;3534;49.960;8.018;2023-12-28T08:46:01;9.70;99.90
6988;DHT22;3534;49.960;8.018;2023-12-28T08:48:28;9.70;99.90
6988;DHT22;3534;49.960;8.018;2023-12-28T08:50:54;9.70;99.90
6988;DHT22;3534;49.960;8.018;2023-12-28T08:53:21;9.70;99.90
6988;DHT22;3534;49.960;8.018;2023-12-28T08:55:48;9.70;99.90
6988;DHT22;3534;49.960;8.018;2023-12-28T08:58:16;9.80;99.90
6988;DHT22;3534;49.960;8.018;2023-12-28T09:00:42;9.80;99.90
6988;DHT22;3534;49.960;8.018;2023-12-28T09:03:10;9.80;99.90
6988;DHT22;3534;49.960;8.018;2023-12-28T09:05:37;9.90;99.90
6988;DHT22;3534;49.960;8.018;2023-12-28T09:08:05;9.90;99.90
6988;DHT22;3534;49.960;8.018;2023-12-28T09:10:31;9.90;99.90
6988;DHT22;3534;49.960;8.018;2023-12-28T09:12:58;9.90;99.90
6988;DHT22;3534;49.960;8.018;2023-12-28T09:15:26;9.90;99.90
6988;DHT22;3534;49.960;8.018;2023-12-28T09:17:53;10.00;99.90
6988;DHT22;3534;49.960;8.018;2023-12-28T09:20:19;10.00;99.90
6988;DHT22;3534;49.960;8.018;2023-12-28T09:22:46;10.10;99.90
6988;DHT22;3534;49.960;8.018;2023-12-28T09:25:16;10.10;99.90
6988;DHT22;3534;49.960;8.018;2023-12-28T09:27:43;10.20;99.90
6988;DHT22;3534;49.960;8.018;2023-12-28T09:30:10;10.20;99.90
6988;DHT22;3534;49.960;8.018;2023-12-28T09:32:38;10.20;99.90
6988;DHT22;3534;49.960;8.018;2023-12-28T09:35:05;10.30;99.90
6988;DHT22;3534;49.960;8.018;2023-12-28T09:37:32;10.30;99.90
6988;DHT22;3534;49.960;8.018;2023-12-28T09:39:59;10.30;99.90
6988;DHT22;3534;49.960;8.018;2023-12-28T09:42:28;10.40;99.90
6988;DHT22;3534;49.960;8.018;2023-12-28T09:44:56;10.40;99.90
6988;DHT22;3534;49.960;8.018;2023-12-28T09:47:23;10.40;99.90
6988;DHT22;3534;49.960;8.018;2023-12-28T09:49:51;10.40;99.90
6988;DHT22;3534;49.960;8.018;2023-12-28T09:52:18;10.40;99.90
6988;DHT22;3534;49.960;8.018;2023-12-28T09:54:44;10.50;99.90
6988;DHT22;3534;49.960;8.018;2023-12-28T09:57:11;10.50;99.90
6988;DHT22;3534;49.960;8.018;2023-12-28T09:59:38;10.50;99.90
6988;DHT22;3534;49.960;8.018;2023-12-28T10:02:06;10.50;99.90
6988;DHT22;3534;49.960;8.018;2023-12-28T10:04:33;10.50;99.90
6988;DHT22;3534;49.960;8.018;2023-12-28T10:07:01;10.60;99.90
6988;DHT22;3534;49.960;8.018;2023-12-28T10:09:28;10.60;99.90
6988;DHT22;3534;49.960;8.018;2023-12-28T10:11:56;10.60;99.90
6988;DHT22;3534;49.960;8.018;2023-12-28T10:14:23;10.60;99.90
6988;DHT22;3534;49.960;8.018;2023-12-28T10:16:50;10.70;99.90
6988;DHT22;3534;49.960;8.018;2023-12-28T10:19:21;10.70;99.90
6988;DHT22;3534;49.960;8.018;2023-12-28T10:21:48;10.80;99.90
6988;DHT22;3534;49.960;8.018;2023-12-28T10:24:16;10.80;99.90
6988;DHT22;3534;49.960;8.018;2023-12-28T10:26:43;10.90;99.90
6988;DHT22;3534;49.960;8.018;2023-12-28T10:29:10;11.00;99.90
6988;DHT22;3534;49.960;8.018;2023-12-28T10:31:37;11.10;99.90
6988;DHT22;3534;49.960;8.018;2023-12-28T10:34:08;11.20;99.90
6988;DHT22;3534;49.960;8.018;2023-12-28T10:36:35;11.30;99.90
6988;DHT22;3534;49.960;8.018;2023-12-28T10:39:05;11.40;99.90
6988;DHT22;3534;49.960;8.018;2023-12-28T10:41:37;11.60;99.90
6988;DHT22;3534;49.960;8.018;2023-12-28T10:44:05;11.70;99.90
6988;DHT22;3534;49.960;8.018;2023-12-28T10:46:37;11.80;99.90
6988;DHT22;3534;49.960;8.018;2023-12-28T10:49:08;11.90;99.90
6988;DHT22;3534;49.960;8.018;2023-12-28T10:51:36;12.00;99.90
6988;DHT22;3534;49.960;8.018;2023-12-28T10:54:22;12.10;99.90
6988;DHT22;3534;49.960;8.018;2023-12-28T10:56:59;12.20;99.90
6988;DHT22;3534;49.960;8.018;2023-12-28T10:59:35;12.20;99.90
6988;DHT22;3534;49.960;8.018;2023-12-28T11:02:05;12.30;99.90
6988;DHT22;3534;49.960;8.018;2023-12-28T11:04:39;12.30;99.90
6988;DHT22;3534;49.960;8.018;2023-12-28T11:07:09;12.20;99.90
6988;DHT22;3534;49.960;8.018;2023-12-28T11:09:37;12.10;99.90
6988;DHT22;3534;49.960;8.018;2023-12-28T11:12:08;12.10;99.90
6988;DHT22;3534;49.960;8.018;2023-12-28T11:14:36;12.00;99.90
6988;DHT22;3534;49.960;8.018;2023-12-28T11:17:05;11.90;99.90
6988;DHT22;3534;49.960;8.018;2023-12-28T11:19:34;11.90;99.90
6988;DHT22;3534;49.960;8.018;2023-12-28T11:22:03;11.90;99.90
6988;DHT22;3534;49.960;8.018;2023-12-28T11:24:30;11.90;99.90
6988;DHT22;3534;49.960;8.018;2023-12-28T11:26:57;11.90;99.90
6988;DHT22;3534;49.960;8.018;2023-12-28T11:29:26;11.90;99.90
6988;DHT22;3534;49.960;8.018;2023-12-28T11:31:57;11.90;99.90
6988;DHT22;3534;49.960;8.018;2023-12-28T11:34:25;11.90;99.90
6988;DHT22;3534;49.960;8.018;2023-12-28T11:36:54;11.90;99.90
6988;DHT22;3534;49.960;8.018;2023-12-28T11:39:29;12.00;99.90
6988;DHT22;3534;49.960;8.018;2023-12-28T11:42:02;12.00;99.90
6988;DHT22;3534;49.960;8.018;2023-12-28T11:44:31;12.00;99.90
6988;DHT22;3534;49.960;8.018;2023-12-28T11:46:58;12.00;99.90
6988;DHT22;3534;49.960;8.018;2023-12-28T11:49:25;12.00;99.90
6988;DHT22;3534;49.960;8.018;2023-12-28T11:51:56;12.10;99.90
6988;DHT22;3534;49.960;8.018;2023-12-28T11:54:24;12.20;99.90
6988;DHT22;3534;49.960;8.018;2023-12-28T11:56:51;12.30;99.90
6988;DHT22;3534;49.960;8.018;2023-12-28T11:59:18;12.40;99.90
6988;DHT22;3534;49.960;8.018;2023-12-28T12:01:50;12.40;99.90
6988;DHT22;3534;49.960;8.018;2023-12-28T12:04:17;12.40;99.90
6988;DHT22;3534;49.960;8.018;2023-12-28T12:06:44;12.40;99.90
6988;DHT22;3534;49.960;8.018;2023-12-28T12:09:11;12.40;99.90
6988;DHT22;3534;49.960;8.018;2023-12-28T12:11:38;12.40;99.90
6988;DHT22;3534;49.960;8.018;2023-12-28T12:14:08;12.50;99.90
6988;DHT22;3534;49.960;8.018;2023-12-28T12:16:35;12.50;99.90
6988;DHT22;3534;49.960;8.018;2023-12-28T12:19:03;12.60;99.90
6988;DHT22;3534;49.960;8.018;2023-12-28T12:21:32;12.60;99.90
6988;DHT22;3534;49.960;8.018;2023-12-28T12:23:59;12.60;99.90
6988;DHT22;3534;49.960;8.018;2023-12-28T12:26:26;12.60;99.90
6988;DHT22;3534;49.960;8.018;2023-12-28T12:28:53;12.80;99.90
6988;DHT22;3534;49.960;8.018;2023-12-28T12:31:20;12.90;99.90
6988;DHT22;3534;49.960;8.018;2023-12-28T12:33:46;13.00;99.90
6988;DHT22;3534;49.960;8.018;2023-12-28T12:36:15;13.30;99.90
6988;DHT22;3534;49.960;8.018;2023-12-28T12:38:42;13.30;99.90
6988;DHT22;3534;49.960;8.018;2023-12-28T12:41:10;13.40;99.90
6988;DHT22;3534;49.960;8.018;2023-12-28T12:43:37;13.30;99.90
6988;DHT22;3534;49.960;8.018;2023-12-28T12:46:06;13.30;99.90
6988;DHT22;3534;49.960;8.018;2023-12-28T12:48:33;13.10;99.90
6988;DHT22;3534;49.960;8.018;2023-12-28T12:51:02;13.00;99.90
6988;DHT22;3534;49.960;8.018;2023-12-28T12:53:33;12.90;99.90
6988;DHT22;3534;49.960;8.018;2023-12-28T12:56:01;12.80;99.90
6988;DHT22;3534;49.960;8.018;2023-12-28T12:58:29;12.70;99.90
6988;DHT22;3534;49.960;8.018;2023-12-28T13:00:56;12.70;99.90
6988;DHT22;3534;49.960;8.018;2023-12-28T13:03:27;12.80;99.90
6988;DHT22;3534;49.960;8.018;2023-12-28T13:05:55;12.90;99.90
6988;DHT22;3534;49.960;8.018;2023-12-28T13:08:22;12.90;99.90
6988;DHT22;3534;49.960;8.018;2023-12-28T13:10:50;13.00;99.90
6988;DHT22;3534;49.960;8.018;2023-12-28T13:13:17;13.00;99.90
6988;DHT22;3534;49.960;8.018;2023-12-28T13:15:44;12.90;99.90
6988;DHT22;3534;49.960;8.018;2023-12-28T13:18:10;12.90;99.90
6988;DHT22;3534;49.960;8.018;2023-12-28T13:20:37;12.80;99.90
6988;DHT22;3534;49.960;8.018;2023-12-28T13:23:04;12.70;99.90
6988;DHT22;3534;49.960;8.018;2023-12-28T13:25:31;12.60;99.90
6988;DHT22;3534;49.960;8.018;2023-12-28T13:27:59;12.60;99.90
6988;DHT22;3534;49.960;8.018;2023-12-28T13:30:26;12.50;99.90
6988;DHT22;3534;49.960;8.018;2023-12-28T13:32:53;12.50;99.90
6988;DHT22;3534;49.960;8.018;2023-12-28T13:35:21;12.40;99.90
6988;DHT22;3534;49.960;8.018;2023-12-28T13:37:47;12.40;99.90
6988;DHT22;3534;49.960;8.018;2023-12-28T13:40:14;12.30;99.90
6988;DHT22;3534;49.960;8.018;2023-12-28T13:42:41;12.30;99.90
6988;DHT22;3534;49.960;8.018;2023-12-28T13:45:09;12.30;99.90
6988;DHT22;3534;49.960;8.018;2023-12-28T13:47:36;12.20;99.90
6988;DHT22;3534;49.960;8.018;2023-12-28T13:50:03;12.10;99.90
6988;DHT22;3534;49.960;8.018;2023-12-28T13:52:31;12.10;99.90
6988;DHT22;3534;49.960;8.018;2023-12-28T13:54:58;12.00;99.90
6988;DHT22;3534;49.960;8.018;2023-12-28T13:57:25;11.90;99.90
6988;DHT22;3534;49.960;8.018;2023-12-28T13:59:52;11.90;99.90
6988;DHT22;3534;49.960;8.018;2023-12-28T14:02:20;11.80;99.90
6988;DHT22;3534;49.960;8.018;2023-12-28T14:04:47;11.90;99.90
6988;DHT22;3534;49.960;8.018;2023-12-28T14:07:14;11.80;99.90
6988;DHT22;3534;49.960;8.018;2023-12-28T14:09:41;11.80;99.90
6988;DHT22;3534;49.960;8.018;2023-12-28T14:15:29;11.90;99.90
6988;DHT22;3534;49.960;8.018;2023-12-28T14:17:57;11.80;99.90
6988;DHT22;3534;49.960;8.018;2023-12-28T14:20:24;11.80;99.90
6988;DHT22;3534;49.960;8.018;2023-12-28T14:22:53;11.80;99.90
6988;DHT22;3534;49.960;8.018;2023-12-28T14:25:21;11.80;99.90
6988;DHT22;3534;49.960;8.018;2023-12-28T14:27:48;11.80;99.90
6988;DHT22;3534;49.960;8.018;2023-12-28T14:30:16;11.70;99.90
6988;DHT22;3534;49.960;8.018;2023-12-28T14:32:43;11.80;99.90
6988;DHT22;3534;49.960;8.018;2023-12-28T14:35:13;12.00;99.90
6988;DHT22;3534;49.960;8.018;2023-12-28T14:37:41;12.10;99.90
6988;DHT22;3534;49.960;8.018;2023-12-28T14:40:09;12.40;99.90
6988;DHT22;3534;49.960;8.018;2023-12-28T14:42:37;12.50;99.90
6988;DHT22;3534;49.960;8.018;2023-12-28T14:45:04;12.70;99.90
6988;DHT22;3534;49.960;8.018;2023-12-28T14:47:31;12.80;99.90
6988;DHT22;3534;49.960;8.018;2023-12-28T14:49:58;12.80;99.90
6988;DHT22;3534;49.960;8.018;2023-12-28T14:52:27;12.70;99.90
6988;DHT22;3534;49.960;8.018;2023-12-28T14:54:54;12.60;99.90
6988;DHT22;3534;49.960;8.018;2023-12-28T14:57:22;12.40;99.90
6988;DHT22;3534;49.960;8.018;2023-12-28T14:59:49;12.30;99.90
6988;DHT22;3534;49.960;8.018;2023-12-28T15:02:15;12.20;99.90
6988;DHT22;3534;49.960;8.018;2023-12-28T15:04:42;12.10;99.90
6988;DHT22;3534;49.960;8.018;2023-12-28T15:07:09;12.10;99.90
6988;DHT22;3534;49.960;8.018;2023-12-28T15:09:37;12.00;99.90
6988;DHT22;3534;49.960;8.018;2023-12-28T15:12:05;11.90;99.90
6988;DHT22;3534;49.960;8.018;2023-12-28T15:14:32;11.80;99.90
6988;DHT22;3534;49.960;8.018;2023-12-28T15:17:00;11.70;99.90
6988;DHT22;3534;49.960;8.018;2023-12-28T15:19:27;11.60;99.90
6988;DHT22;3534;49.960;8.018;2023-12-28T15:21:54;11.60;99.90
6988;DHT22;3534;49.960;8.018;2023-12-28T15:24:21;11.50;99.90
6988;DHT22;3534;49.960;8.018;2023-12-28T15:26:50;11.40;99.90
6988;DHT22;3534;49.960;8.018;2023-12-28T15:29:17;11.40;99.90
6988;DHT22;3534;49.960;8.018;2023-12-28T15:31:43;11.40;99.90
6988;DHT22;3534;49.960;8.018;2023-12-28T15:34:10;11.30;99.90
6988;DHT22;3534;49.960;8.018;2023-12-28T15:36:37;11.30;99.90
6988;DHT22;3534;49.960;8.018;2023-12-28T15:39:04;11.30;99.90
6988;DHT22;3534;49.960;8.018;2023-12-28T15:41:31;11.20;99.90
6988;DHT22;3534;49.960;8.018;2023-12-28T15:43:59;11.20;99.90
6988;DHT22;3534;49.960;8.018;2023-12-28T15:46:26;11.20;99.90
6988;DHT22;3534;49.960;8.018;2023-12-28T15:48:53;11.10;99.90
6988;DHT22;3534;49.960;8.018;2023-12-28T15:51:19;11.10;99.90
6988;DHT22;3534;49.960;8.018;2023-12-28T15:53:47;11.10;99.90
6988;DHT22;3534;49.960;8.018;2023-12-28T15:56:13;11.10;99.90
6988;DHT22;3534;49.960;8.018;2023-12-28T15:58:40;11.00;99.90
6988;DHT22;3534;49.960;8.018;2023-12-28T16:01:08;11.00;99.90
6988;DHT22;3534;49.960;8.018;2023-12-28T16:03:35;11.00;99.90
6988;DHT22;3534;49.960;8.018;2023-12-28T16:06:02;10.90;99.90
6988;DHT22;3534;49.960;8.018;2023-12-28T16:08:28;10.90;99.90
6988;DHT22;3534;49.960;8.018;2023-12-28T16:10:55;10.90;99.90
6988;DHT22;3534;49.960;8.018;2023-12-28T16:13:22;10.90;99.90
6988;DHT22;3534;49.960;8.018;2023-12-28T16:15:49;10.90;99.90